sensor_id;sensor_type;location;lat;lon;timestamp;P1;durP1;ratioP1;P2;durP2;ratioP2
75550;SDS011;65071;53.082;18.218;2023-03-01T00:01:10;65.70;;;24.70;;
75550;SDS011;65071;53.082;18.218;2023-03-01T00:03:39;66.40;;;24.30;;
75550;SDS011;65071;53.082;18.218;2023-03-01T00:06:06;60.00;;;21.70;;
75550;SDS011;65071;53.082;18.218;2023-03-01T00:08:33;54.00;;;20.50;;
75550;SDS011;65071;53.082;18.218;2023-03-01T00:11:07;55.60;;;20.40;;
75550;SDS011;65071;53.082;18.218;2023-03-01T00:13:34;51.50;;;19.10;;
75550;SDS011;65071;53.082;18.218;2023-03-01T00:16:05;52.30;;;19.60;;
75550;SDS011;65071;53.082;18.218;2023-03-01T00:18:33;56.80;;;22.20;;
75550;SDS011;65071;53.082;18.218;2023-03-01T00:21:00;66.20;;;22.00;;
75550;SDS011;65071;53.082;18.218;2023-03-01T00:23:26;81.10;;;25.00;;
75550;SDS011;65071;53.082;18.218;2023-03-01T00:25:54;76.50;;;25.60;;
75550;SDS011;65071;53.082;18.218;2023-03-01T00:28:21;87.30;;;28.50;;
75550;SDS011;65071;53.082;18.218;2023-03-01T00:30:47;103.00;;;32.10;;
75550;SDS011;65071;53.082;18.218;2023-03-01T00:33:14;84.70;;;28.20;;
75550;SDS011;65071;53.082;18.218;2023-03-01T00:35:41;84.10;;;27.30;;
75550;SDS011;65071;53.082;18.218;2023-03-01T00:38:07;50.60;;;17.00;;
75550;SDS011;65071;53.082;18.218;2023-03-01T00:40:35;52.30;;;16.90;;
75550;SDS011;65071;53.082;18.218;2023-03-01T00:43:02;55.30;;;18.60;;
75550;SDS011;65071;53.082;18.218;2023-03-01T00:45:29;50.10;;;17.10;;
75550;SDS011;65071;53.082;18.218;2023-03-01T00:47:58;44.50;;;14.90;;
75550;SDS011;65071;53.082;18.218;2023-03-01T00:50:25;57.30;;;18.40;;
75550;SDS011;65071;53.082;18.218;2023-03-01T00:52:52;56.50;;;20.00;;
75550;SDS011;65071;53.082;18.218;2023-03-01T00:55:20;51.20;;;18.30;;
75550;SDS011;65071;53.082;18.218;2023-03-01T00:57:47;39.90;;;16.80;;
75550;SDS011;65071;53.082;18.218;2023-03-01T01:00:14;53.60;;;17.50;;
75550;SDS011;65071;53.082;18.218;2023-03-01T01:02:41;51.50;;;17.60;;
75550;SDS011;65071;53.082;18.218;2023-03-01T01:05:08;46.50;;;17.50;;
75550;SDS011;65071;53.082;18.218;2023-03-01T01:07:35;63.70;;;21.20;;
75550;SDS011;65071;53.082;18.218;2023-03-01T01:10:02;62.80;;;21.50;;
75550;SDS011;65071;53.082;18.218;2023-03-01T01:12:29;46.30;;;16.10;;
75550;SDS011;65071;53.082;18.218;2023-03-01T01:14:56;43.40;;;15.10;;
75550;SDS011;65071;53.082;18.218;2023-03-01T01:17:23;45.80;;;17.50;;
75550;SDS011;65071;53.082;18.218;2023-03-01T01:19:49;45.00;;;17.60;;
75550;SDS011;65071;53.082;18.218;2023-03-01T01:22:16;45.20;;;17.60;;
75550;SDS011;65071;53.082;18.218;2023-03-01T01:24:43;44.00;;;15.90;;
75550;SDS011;65071;53.082;18.218;2023-03-01T01:27:10;41.40;;;13.40;;
75550;SDS011;65071;53.082;18.218;2023-03-01T01:29:36;34.90;;;12.00;;
75550;SDS011;65071;53.082;18.218;2023-03-01T01:32:04;31.00;;;11.50;;
75550;SDS011;65071;53.082;18.218;2023-03-01T01:34:30;38.00;;;13.20;;
75550;SDS011;65071;53.082;18.218;2023-03-01T01:36:57;34.20;;;14.90;;
75550;SDS011;65071;53.082;18.218;2023-03-01T01:39:28;39.00;;;13.60;;
75550;SDS011;65071;53.082;18.218;2023-03-01T01:41:55;40.40;;;15.30;;
75550;SDS011;65071;53.082;18.218;2023-03-01T01:44:26;38.30;;;14.00;;
75550;SDS011;65071;53.082;18.218;2023-03-01T01:46:55;38.00;;;13.50;;
75550;SDS011;65071;53.082;18.218;2023-03-01T01:49:28;39.70;;;13.40;;
75550;SDS011;65071;53.082;18.218;2023-03-01T01:52:18;40.90;;;13.70;;
75550;SDS011;65071;53.082;18.218;2023-03-01T01:57:21;37.10;;;13.10;;
75550;SDS011;65071;53.082;18.218;2023-03-01T02:00:00;34.70;;;13.40;;
75550;SDS011;65071;53.082;18.218;2023-03-01T02:02:44;32.90;;;12.20;;
75550;SDS011;65071;53.082;18.218;2023-03-01T02:08:20;32.20;;;11.80;;
75550;SDS011;65071;53.082;18.218;2023-03-01T02:10:48;34.80;;;11.90;;
75550;SDS011;65071;53.082;18.218;2023-03-01T02:13:16;28.50;;;10.20;;
75550;SDS011;65071;53.082;18.218;2023-03-01T02:15:43;35.40;;;12.70;;
75550;SDS011;65071;53.082;18.218;2023-03-01T02:18:12;47.20;;;15.20;;
75550;SDS011;65071;53.082;18.218;2023-03-01T02:23:13;41.60;;;16.90;;
75550;SDS011;65071;53.082;18.218;2023-03-01T02:28:59;47.60;;;18.10;;
75550;SDS011;65071;53.082;18.218;2023-03-01T02:31:26;46.80;;;18.10;;
75550;SDS011;65071;53.082;18.218;2023-03-01T02:36:44;51.10;;;18.20;;
75550;SDS011;65071;53.082;18.218;2023-03-01T02:39:25;59.50;;;18.70;;
75550;SDS011;65071;53.082;18.218;2023-03-01T02:41:55;49.10;;;17.50;;
75550;SDS011;65071;53.082;18.218;2023-03-01T02:44:23;42.40;;;15.70;;
75550;SDS011;65071;53.082;18.218;2023-03-01T02:46:51;45.00;;;16.70;;
75550;SDS011;65071;53.082;18.218;2023-03-01T02:57:12;32.00;;;13.60;;
75550;SDS011;65071;53.082;18.218;2023-03-01T02:59:40;32.80;;;12.70;;
75550;SDS011;65071;53.082;18.218;2023-03-01T03:02:22;37.30;;;13.70;;
75550;SDS011;65071;53.082;18.218;2023-03-01T03:05:09;34.80;;;14.30;;
75550;SDS011;65071;53.082;18.218;2023-03-01T03:07:39;36.30;;;14.60;;
75550;SDS011;65071;53.082;18.218;2023-03-01T03:10:12;38.20;;;13.00;;
75550;SDS011;65071;53.082;18.218;2023-03-01T03:12:41;35.80;;;13.10;;
75550;SDS011;65071;53.082;18.218;2023-03-01T03:15:09;34.00;;;14.00;;
75550;SDS011;65071;53.082;18.218;2023-03-01T03:17:39;35.60;;;14.10;;
75550;SDS011;65071;53.082;18.218;2023-03-01T03:20:08;32.10;;;12.70;;
75550;SDS011;65071;53.082;18.218;2023-03-01T03:22:39;30.70;;;12.80;;
75550;SDS011;65071;53.082;18.218;2023-03-01T03:25:07;32.20;;;13.10;;
75550;SDS011;65071;53.082;18.218;2023-03-01T03:27:38;27.60;;;12.20;;
75550;SDS011;65071;53.082;18.218;2023-03-01T03:30:07;28.60;;;11.80;;
75550;SDS011;65071;53.082;18.218;2023-03-01T03:32:35;29.30;;;12.00;;
75550;SDS011;65071;53.082;18.218;2023-03-01T03:35:06;30.30;;;12.10;;
75550;SDS011;65071;53.082;18.218;2023-03-01T03:37:38;31.60;;;12.40;;
75550;SDS011;65071;53.082;18.218;2023-03-01T03:40:24;30.30;;;11.30;;
75550;SDS011;65071;53.082;18.218;2023-03-01T03:42:51;24.10;;;8.70;;
75550;SDS011;65071;53.082;18.218;2023-03-01T03:45:18;23.90;;;9.10;;
75550;SDS011;65071;53.082;18.218;2023-03-01T03:47:45;25.80;;;10.30;;
75550;SDS011;65071;53.082;18.218;2023-03-01T03:50:12;33.60;;;14.30;;
75550;SDS011;65071;53.082;18.218;2023-03-01T03:52:40;28.80;;;12.00;;
75550;SDS011;65071;53.082;18.218;2023-03-01T03:55:09;27.00;;;12.10;;
75550;SDS011;65071;53.082;18.218;2023-03-01T03:57:37;27.30;;;11.60;;
75550;SDS011;65071;53.082;18.218;2023-03-01T04:00:05;25.50;;;10.90;;
75550;SDS011;65071;53.082;18.218;2023-03-01T04:02:40;29.90;;;12.40;;
75550;SDS011;65071;53.082;18.218;2023-03-01T04:05:07;29.40;;;11.70;;
75550;SDS011;65071;53.082;18.218;2023-03-01T04:07:35;28.80;;;10.60;;
75550;SDS011;65071;53.082;18.218;2023-03-01T04:10:03;27.60;;;11.70;;
75550;SDS011;65071;53.082;18.218;2023-03-01T04:12:33;30.50;;;12.00;;
75550;SDS011;65071;53.082;18.218;2023-03-01T04:15:03;30.80;;;11.10;;
75550;SDS011;65071;53.082;18.218;2023-03-01T04:17:42;27.10;;;9.90;;
75550;SDS011;65071;53.082;18.218;2023-03-01T04:20:11;26.80;;;9.70;;
75550;SDS011;65071;53.082;18.218;2023-03-01T04:22:43;28.60;;;10.10;;
75550;SDS011;65071;53.082;18.218;2023-03-01T04:25:13;26.10;;;10.40;;
75550;SDS011;65071;53.082;18.218;2023-03-01T04:27:40;25.80;;;9.90;;
75550;SDS011;65071;53.082;18.218;2023-03-01T04:30:07;26.90;;;10.10;;
75550;SDS011;65071;53.082;18.218;2023-03-01T04:32:35;23.90;;;9.90;;
75550;SDS011;65071;53.082;18.218;2023-03-01T04:35:02;27.30;;;10.00;;
75550;SDS011;65071;53.082;18.218;2023-03-01T04:37:28;31.00;;;12.20;;
75550;SDS011;65071;53.082;18.218;2023-03-01T04:39:56;33.60;;;13.40;;
75550;SDS011;65071;53.082;18.218;2023-03-01T04:42:22;37.40;;;12.50;;
75550;SDS011;65071;53.082;18.218;2023-03-01T04:44:49;30.30;;;12.90;;
75550;SDS011;65071;53.082;18.218;2023-03-01T04:47:17;34.80;;;12.40;;
75550;SDS011;65071;53.082;18.218;2023-03-01T04:49:44;32.80;;;13.40;;
75550;SDS011;65071;53.082;18.218;2023-03-01T04:52:10;31.80;;;12.60;;
75550;SDS011;65071;53.082;18.218;2023-03-01T04:54:37;31.80;;;12.70;;
75550;SDS011;65071;53.082;18.218;2023-03-01T04:57:03;28.40;;;11.20;;
75550;SDS011;65071;53.082;18.218;2023-03-01T04:59:30;31.00;;;11.20;;
75550;SDS011;65071;53.082;18.218;2023-03-01T05:01:57;29.90;;;11.60;;
75550;SDS011;65071;53.082;18.218;2023-03-01T05:04:24;31.70;;;11.60;;
75550;SDS011;65071;53.082;18.218;2023-03-01T05:06:50;33.20;;;12.70;;
75550;SDS011;65071;53.082;18.218;2023-03-01T05:09:17;33.70;;;13.00;;
75550;SDS011;65071;53.082;18.218;2023-03-01T05:11:44;33.60;;;11.70;;
75550;SDS011;65071;53.082;18.218;2023-03-01T05:14:11;42.30;;;12.70;;
75550;SDS011;65071;53.082;18.218;2023-03-01T05:16:37;49.90;;;14.30;;
75550;SDS011;65071;53.082;18.218;2023-03-01T05:19:04;36.50;;;11.80;;
75550;SDS011;65071;53.082;18.218;2023-03-01T05:21:37;61.00;;;16.90;;
75550;SDS011;65071;53.082;18.218;2023-03-01T05:24:23;48.80;;;16.70;;
75550;SDS011;65071;53.082;18.218;2023-03-01T05:26:50;43.10;;;14.80;;
75550;SDS011;65071;53.082;18.218;2023-03-01T05:31:52;42.90;;;14.30;;
75550;SDS011;65071;53.082;18.218;2023-03-01T05:34:23;39.90;;;14.10;;
75550;SDS011;65071;53.082;18.218;2023-03-01T05:36:52;30.40;;;12.10;;
75550;SDS011;65071;53.082;18.218;2023-03-01T05:39:20;33.80;;;12.00;;
75550;SDS011;65071;53.082;18.218;2023-03-01T05:41:51;33.90;;;11.60;;
75550;SDS011;65071;53.082;18.218;2023-03-01T05:44:19;29.40;;;12.20;;
75550;SDS011;65071;53.082;18.218;2023-03-01T05:46:46;30.60;;;11.10;;
75550;SDS011;65071;53.082;18.218;2023-03-01T05:49:13;27.30;;;10.10;;
75550;SDS011;65071;53.082;18.218;2023-03-01T05:51:40;37.80;;;14.90;;
75550;SDS011;65071;53.082;18.218;2023-03-01T05:54:08;44.90;;;16.10;;
75550;SDS011;65071;53.082;18.218;2023-03-01T05:56:36;38.90;;;15.20;;
75550;SDS011;65071;53.082;18.218;2023-03-01T05:59:03;37.20;;;14.60;;
75550;SDS011;65071;53.082;18.218;2023-03-01T06:01:34;48.10;;;17.00;;
75550;SDS011;65071;53.082;18.218;2023-03-01T06:04:02;48.80;;;18.90;;
75550;SDS011;65071;53.082;18.218;2023-03-01T06:06:29;46.00;;;18.90;;
75550;SDS011;65071;53.082;18.218;2023-03-01T06:08:56;53.30;;;20.00;;
75550;SDS011;65071;53.082;18.218;2023-03-01T06:11:22;50.10;;;19.10;;
75550;SDS011;65071;53.082;18.218;2023-03-01T06:13:49;54.00;;;19.90;;
75550;SDS011;65071;53.082;18.218;2023-03-01T06:16:16;54.80;;;20.90;;
75550;SDS011;65071;53.082;18.218;2023-03-01T06:18:42;55.90;;;19.90;;
75550;SDS011;65071;53.082;18.218;2023-03-01T06:21:09;63.70;;;21.00;;
75550;SDS011;65071;53.082;18.218;2023-03-01T06:23:36;48.70;;;18.10;;
75550;SDS011;65071;53.082;18.218;2023-03-01T06:26:06;39.60;;;13.90;;
75550;SDS011;65071;53.082;18.218;2023-03-01T06:28:34;58.80;;;21.40;;
75550;SDS011;65071;53.082;18.218;2023-03-01T06:31:01;47.50;;;18.20;;
75550;SDS011;65071;53.082;18.218;2023-03-01T06:33:28;48.40;;;16.30;;
75550;SDS011;65071;53.082;18.218;2023-03-01T06:35:55;47.80;;;17.40;;
75550;SDS011;65071;53.082;18.218;2023-03-01T06:38:23;44.30;;;14.30;;
75550;SDS011;65071;53.082;18.218;2023-03-01T06:40:53;38.90;;;13.80;;
75550;SDS011;65071;53.082;18.218;2023-03-01T06:43:21;32.20;;;11.90;;
75550;SDS011;65071;53.082;18.218;2023-03-01T06:45:48;36.60;;;13.00;;
75550;SDS011;65071;53.082;18.218;2023-03-01T06:48:14;35.90;;;12.00;;
75550;SDS011;65071;53.082;18.218;2023-03-01T06:50:41;21.70;;;9.20;;
75550;SDS011;65071;53.082;18.218;2023-03-01T06:53:08;28.30;;;10.00;;
75550;SDS011;65071;53.082;18.218;2023-03-01T06:55:35;18.70;;;6.30;;
75550;SDS011;65071;53.082;18.218;2023-03-01T06:58:02;31.60;;;12.20;;
75550;SDS011;65071;53.082;18.218;2023-03-01T07:00:29;23.80;;;9.40;;
75550;SDS011;65071;53.082;18.218;2023-03-01T07:02:59;28.20;;;11.10;;
75550;SDS011;65071;53.082;18.218;2023-03-01T07:05:28;28.50;;;11.00;;
75550;SDS011;65071;53.082;18.218;2023-03-01T07:07:56;23.90;;;10.70;;
75550;SDS011;65071;53.082;18.218;2023-03-01T07:10:23;25.10;;;10.50;;
75550;SDS011;65071;53.082;18.218;2023-03-01T07:12:50;28.50;;;10.50;;
75550;SDS011;65071;53.082;18.218;2023-03-01T07:15:20;24.90;;;10.20;;
75550;SDS011;65071;53.082;18.218;2023-03-01T07:17:47;20.70;;;9.10;;
75550;SDS011;65071;53.082;18.218;2023-03-01T07:20:20;19.80;;;7.70;;
75550;SDS011;65071;53.082;18.218;2023-03-01T07:22:51;25.30;;;9.90;;
75550;SDS011;65071;53.082;18.218;2023-03-01T07:25:19;19.60;;;8.50;;
75550;SDS011;65071;53.082;18.218;2023-03-01T07:27:49;28.80;;;10.40;;
75550;SDS011;65071;53.082;18.218;2023-03-01T07:30:17;29.80;;;10.90;;
75550;SDS011;65071;53.082;18.218;2023-03-01T07:32:44;21.10;;;7.80;;
75550;SDS011;65071;53.082;18.218;2023-03-01T07:35:11;21.40;;;9.80;;
75550;SDS011;65071;53.082;18.218;2023-03-01T07:37:38;22.50;;;9.80;;
75550;SDS011;65071;53.082;18.218;2023-03-01T07:40:05;19.00;;;9.50;;
75550;SDS011;65071;53.082;18.218;2023-03-01T07:42:32;13.00;;;6.30;;
75550;SDS011;65071;53.082;18.218;2023-03-01T07:44:59;21.90;;;9.40;;
75550;SDS011;65071;53.082;18.218;2023-03-01T07:47:26;17.80;;;8.70;;
75550;SDS011;65071;53.082;18.218;2023-03-01T07:49:53;16.40;;;8.50;;
75550;SDS011;65071;53.082;18.218;2023-03-01T07:52:19;18.30;;;7.40;;
75550;SDS011;65071;53.082;18.218;2023-03-01T07:54:46;7.10;;;3.40;;
75550;SDS011;65071;53.082;18.218;2023-03-01T07:57:13;15.30;;;7.10;;
75550;SDS011;65071;53.082;18.218;2023-03-01T07:59:39;15.60;;;6.80;;
75550;SDS011;65071;53.082;18.218;2023-03-01T08:02:07;20.80;;;8.00;;
75550;SDS011;65071;53.082;18.218;2023-03-01T08:04:34;17.00;;;8.20;;
75550;SDS011;65071;53.082;18.218;2023-03-01T08:07:04;12.50;;;6.60;;
75550;SDS011;65071;53.082;18.218;2023-03-01T08:09:31;16.40;;;6.90;;
75550;SDS011;65071;53.082;18.218;2023-03-01T08:11:57;13.60;;;7.30;;
75550;SDS011;65071;53.082;18.218;2023-03-01T08:14:27;15.20;;;6.70;;
75550;SDS011;65071;53.082;18.218;2023-03-01T08:16:53;12.40;;;7.00;;
75550;SDS011;65071;53.082;18.218;2023-03-01T08:19:21;11.30;;;6.50;;
75550;SDS011;65071;53.082;18.218;2023-03-01T08:21:48;14.80;;;7.00;;
75550;SDS011;65071;53.082;18.218;2023-03-01T08:24:14;14.90;;;6.50;;
75550;SDS011;65071;53.082;18.218;2023-03-01T08:26:41;15.40;;;6.90;;
75550;SDS011;65071;53.082;18.218;2023-03-01T08:29:08;18.50;;;7.50;;
75550;SDS011;65071;53.082;18.218;2023-03-01T08:31:36;14.80;;;6.60;;
75550;SDS011;65071;53.082;18.218;2023-03-01T08:34:05;13.10;;;6.20;;
75550;SDS011;65071;53.082;18.218;2023-03-01T08:36:41;18.50;;;7.80;;
75550;SDS011;65071;53.082;18.218;2023-03-01T08:39:10;13.00;;;6.80;;
75550;SDS011;65071;53.082;18.218;2023-03-01T08:41:38;15.60;;;7.80;;
75550;SDS011;65071;53.082;18.218;2023-03-01T08:44:05;14.40;;;6.60;;
75550;SDS011;65071;53.082;18.218;2023-03-01T08:46:33;10.70;;;5.60;;
75550;SDS011;65071;53.082;18.218;2023-03-01T08:49:36;13.40;;;7.10;;
75550;SDS011;65071;53.082;18.218;2023-03-01T08:51:55;16.00;;;6.60;;
75550;SDS011;65071;53.082;18.218;2023-03-01T08:54:22;16.90;;;7.90;;
75550;SDS011;65071;53.082;18.218;2023-03-01T08:56:48;17.10;;;8.40;;
75550;SDS011;65071;53.082;18.218;2023-03-01T08:59:16;12.70;;;5.80;;
75550;SDS011;65071;53.082;18.218;2023-03-01T09:01:44;18.90;;;9.00;;
75550;SDS011;65071;53.082;18.218;2023-03-01T09:04:11;12.60;;;6.00;;
75550;SDS011;65071;53.082;18.218;2023-03-01T09:06:38;16.20;;;8.40;;
75550;SDS011;65071;53.082;18.218;2023-03-01T09:09:05;11.60;;;6.20;;
75550;SDS011;65071;53.082;18.218;2023-03-01T09:11:36;19.20;;;8.20;;
75550;SDS011;65071;53.082;18.218;2023-03-01T09:14:04;16.80;;;8.50;;
75550;SDS011;65071;53.082;18.218;2023-03-01T09:16:32;18.90;;;9.00;;
75550;SDS011;65071;53.082;18.218;2023-03-01T09:19:02;16.10;;;8.40;;
75550;SDS011;65071;53.082;18.218;2023-03-01T09:21:29;16.50;;;7.70;;
75550;SDS011;65071;53.082;18.218;2023-03-01T09:23:56;18.30;;;8.50;;
75550;SDS011;65071;53.082;18.218;2023-03-01T09:26:24;15.60;;;7.30;;
75550;SDS011;65071;53.082;18.218;2023-03-01T09:28:52;16.90;;;7.40;;
75550;SDS011;65071;53.082;18.218;2023-03-01T09:31:21;16.00;;;8.80;;
75550;SDS011;65071;53.082;18.218;2023-03-01T09:33:50;19.60;;;9.50;;
75550;SDS011;65071;53.082;18.218;2023-03-01T09:36:19;17.70;;;8.70;;
75550;SDS011;65071;53.082;18.218;2023-03-01T09:38:48;17.90;;;8.50;;
75550;SDS011;65071;53.082;18.218;2023-03-01T09:46:45;19.50;;;9.50;;
75550;SDS011;65071;53.082;18.218;2023-03-01T09:49:17;21.10;;;9.20;;
75550;SDS011;65071;53.082;18.218;2023-03-01T09:52:02;21.30;;;10.90;;
75550;SDS011;65071;53.082;18.218;2023-03-01T09:54:38;16.90;;;8.50;;
75550;SDS011;65071;53.082;18.218;2023-03-01T09:57:18;13.80;;;7.90;;
75550;SDS011;65071;53.082;18.218;2023-03-01T10:00:08;20.90;;;8.70;;
75550;SDS011;65071;53.082;18.218;2023-03-01T10:02:42;14.60;;;7.80;;
75550;SDS011;65071;53.082;18.218;2023-03-01T10:10:37;13.90;;;6.80;;
75550;SDS011;65071;53.082;18.218;2023-03-01T10:13:17;15.70;;;8.20;;
75550;SDS011;65071;53.082;18.218;2023-03-01T10:18:44;16.30;;;7.70;;
75550;SDS011;65071;53.082;18.218;2023-03-01T10:21:15;13.60;;;7.60;;
75550;SDS011;65071;53.082;18.218;2023-03-01T10:23:46;12.30;;;6.00;;
75550;SDS011;65071;53.082;18.218;2023-03-01T10:29:13;16.90;;;7.80;;
75550;SDS011;65071;53.082;18.218;2023-03-01T10:31:44;17.30;;;8.30;;
75550;SDS011;65071;53.082;18.218;2023-03-01T10:34:26;16.70;;;8.60;;
75550;SDS011;65071;53.082;18.218;2023-03-01T10:37:17;11.60;;;6.60;;
75550;SDS011;65071;53.082;18.218;2023-03-01T10:39:56;15.20;;;8.00;;
75550;SDS011;65071;53.082;18.218;2023-03-01T10:42:27;15.80;;;7.90;;
75550;SDS011;65071;53.082;18.218;2023-03-01T10:44:54;12.00;;;6.30;;
75550;SDS011;65071;53.082;18.218;2023-03-01T10:47:22;16.20;;;7.60;;
75550;SDS011;65071;53.082;18.218;2023-03-01T10:50:17;12.00;;;6.30;;
75550;SDS011;65071;53.082;18.218;2023-03-01T10:53:18;13.00;;;5.20;;
75550;SDS011;65071;53.082;18.218;2023-03-01T10:55:46;11.50;;;6.40;;
75550;SDS011;65071;53.082;18.218;2023-03-01T10:58:24;15.80;;;6.90;;
75550;SDS011;65071;53.082;18.218;2023-03-01T11:00:54;13.40;;;6.60;;
75550;SDS011;65071;53.082;18.218;2023-03-01T11:03:33;12.00;;;6.50;;
75550;SDS011;65071;53.082;18.218;2023-03-01T11:06:20;13.40;;;5.90;;
75550;SDS011;65071;53.082;18.218;2023-03-01T11:08:49;9.40;;;3.90;;
75550;SDS011;65071;53.082;18.218;2023-03-01T11:13:54;9.60;;;4.90;;
75550;SDS011;65071;53.082;18.218;2023-03-01T11:16:38;7.10;;;3.90;;
75550;SDS011;65071;53.082;18.218;2023-03-01T11:21:38;11.60;;;5.30;;
75550;SDS011;65071;53.082;18.218;2023-03-01T11:24:11;9.00;;;5.40;;
75550;SDS011;65071;53.082;18.218;2023-03-01T11:26:40;11.30;;;6.40;;
75550;SDS011;65071;53.082;18.218;2023-03-01T11:29:12;9.90;;;4.90;;
75550;SDS011;65071;53.082;18.218;2023-03-01T11:31:54;10.10;;;5.30;;
75550;SDS011;65071;53.082;18.218;2023-03-01T11:34:35;11.60;;;6.00;;
75550;SDS011;65071;53.082;18.218;2023-03-01T11:37:12;8.70;;;3.70;;
75550;SDS011;65071;53.082;18.218;2023-03-01T11:39:52;8.80;;;4.80;;
75550;SDS011;65071;53.082;18.218;2023-03-01T11:42:28;8.10;;;4.00;;
75550;SDS011;65071;53.082;18.218;2023-03-01T11:45:06;7.80;;;4.40;;
75550;SDS011;65071;53.082;18.218;2023-03-01T11:53:13;6.00;;;3.20;;
75550;SDS011;65071;53.082;18.218;2023-03-01T12:07:46;6.80;;;3.50;;
75550;SDS011;65071;53.082;18.218;2023-03-01T12:10:31;9.50;;;3.20;;
75550;SDS011;65071;53.082;18.218;2023-03-01T12:21:42;11.00;;;4.90;;
75550;SDS011;65071;53.082;18.218;2023-03-01T12:27:10;8.00;;;4.20;;
75550;SDS011;65071;53.082;18.218;2023-03-01T12:30:20;7.90;;;4.40;;
75550;SDS011;65071;53.082;18.218;2023-03-01T12:36:04;10.80;;;4.50;;
75550;SDS011;65071;53.082;18.218;2023-03-01T12:38:49;8.90;;;4.40;;
75550;SDS011;65071;53.082;18.218;2023-03-01T12:41:38;6.80;;;3.60;;
75550;SDS011;65071;53.082;18.218;2023-03-01T12:44:21;8.80;;;4.40;;
75550;SDS011;65071;53.082;18.218;2023-03-01T12:49:44;9.10;;;4.70;;
75550;SDS011;65071;53.082;18.218;2023-03-01T12:55:33;9.30;;;4.50;;
75550;SDS011;65071;53.082;18.218;2023-03-01T12:58:11;7.80;;;4.10;;
75550;SDS011;65071;53.082;18.218;2023-03-01T13:00:54;8.20;;;4.20;;
75550;SDS011;65071;53.082;18.218;2023-03-01T13:03:36;9.60;;;4.20;;
75550;SDS011;65071;53.082;18.218;2023-03-01T13:11:35;11.20;;;5.20;;
75550;SDS011;65071;53.082;18.218;2023-03-01T13:16:47;9.20;;;4.90;;
75550;SDS011;65071;53.082;18.218;2023-03-01T13:21:58;7.90;;;4.20;;
75550;SDS011;65071;53.082;18.218;2023-03-01T13:32:18;5.70;;;3.60;;
75550;SDS011;65071;53.082;18.218;2023-03-01T13:34:48;9.80;;;4.70;;
75550;SDS011;65071;53.082;18.218;2023-03-01T13:37:26;6.50;;;3.20;;
75550;SDS011;65071;53.082;18.218;2023-03-01T13:39:57;9.40;;;5.00;;
75550;SDS011;65071;53.082;18.218;2023-03-01T13:42:31;8.30;;;4.90;;
75550;SDS011;65071;53.082;18.218;2023-03-01T13:45:01;7.40;;;4.50;;
75550;SDS011;65071;53.082;18.218;2023-03-01T13:47:28;8.10;;;4.40;;
75550;SDS011;65071;53.082;18.218;2023-03-01T13:49:59;7.70;;;4.10;;
75550;SDS011;65071;53.082;18.218;2023-03-01T13:57:49;7.90;;;3.90;;
75550;SDS011;65071;53.082;18.218;2023-03-01T14:00:36;7.70;;;3.60;;
75550;SDS011;65071;53.082;18.218;2023-03-01T14:05:34;8.30;;;4.40;;
75550;SDS011;65071;53.082;18.218;2023-03-01T14:08:03;8.50;;;4.70;;
75550;SDS011;65071;53.082;18.218;2023-03-01T14:10:44;9.40;;;4.80;;
75550;SDS011;65071;53.082;18.218;2023-03-01T14:19:57;9.10;;;4.50;;
75550;SDS011;65071;53.082;18.218;2023-03-01T14:22:29;8.30;;;4.20;;
75550;SDS011;65071;53.082;18.218;2023-03-01T14:25:00;8.10;;;4.10;;
75550;SDS011;65071;53.082;18.218;2023-03-01T14:27:34;8.20;;;5.20;;
75550;SDS011;65071;53.082;18.218;2023-03-01T14:30:17;9.80;;;4.60;;
75550;SDS011;65071;53.082;18.218;2023-03-01T14:32:56;8.50;;;3.70;;
75550;SDS011;65071;53.082;18.218;2023-03-01T14:35:27;9.00;;;4.30;;
75550;SDS011;65071;53.082;18.218;2023-03-01T14:42:52;9.20;;;4.50;;
75550;SDS011;65071;53.082;18.218;2023-03-01T14:45:21;9.20;;;4.50;;
75550;SDS011;65071;53.082;18.218;2023-03-01T14:47:50;9.10;;;4.40;;
75550;SDS011;65071;53.082;18.218;2023-03-01T14:52:52;7.70;;;3.70;;
75550;SDS011;65071;53.082;18.218;2023-03-01T14:55:26;7.70;;;4.20;;
75550;SDS011;65071;53.082;18.218;2023-03-01T14:58:03;8.00;;;4.60;;
75550;SDS011;65071;53.082;18.218;2023-03-01T15:00:31;10.60;;;4.80;;
75550;SDS011;65071;53.082;18.218;2023-03-01T15:03:01;9.40;;;4.90;;
75550;SDS011;65071;53.082;18.218;2023-03-01T15:05:36;10.40;;;5.00;;
75550;SDS011;65071;53.082;18.218;2023-03-01T15:08:03;10.50;;;5.40;;
75550;SDS011;65071;53.082;18.218;2023-03-01T15:10:32;9.40;;;5.00;;
75550;SDS011;65071;53.082;18.218;2023-03-01T15:15:51;9.30;;;5.20;;
75550;SDS011;65071;53.082;18.218;2023-03-01T15:18:27;10.00;;;4.90;;
75550;SDS011;65071;53.082;18.218;2023-03-01T15:20:55;8.60;;;4.90;;
75550;SDS011;65071;53.082;18.218;2023-03-01T15:23:47;9.90;;;4.90;;
75550;SDS011;65071;53.082;18.218;2023-03-01T15:26:21;10.10;;;4.80;;
75550;SDS011;65071;53.082;18.218;2023-03-01T15:28:51;9.90;;;4.80;;
75550;SDS011;65071;53.082;18.218;2023-03-01T15:31:23;9.90;;;5.80;;
75550;SDS011;65071;53.082;18.218;2023-03-01T15:34:06;11.70;;;5.60;;
75550;SDS011;65071;53.082;18.218;2023-03-01T15:36:48;8.00;;;3.70;;
75550;SDS011;65071;53.082;18.218;2023-03-01T15:42:07;15.90;;;6.30;;
75550;SDS011;65071;53.082;18.218;2023-03-01T15:44:40;8.10;;;5.00;;
75550;SDS011;65071;53.082;18.218;2023-03-01T15:47:21;10.60;;;5.00;;
75550;SDS011;65071;53.082;18.218;2023-03-01T15:49:52;10.70;;;5.40;;
75550;SDS011;65071;53.082;18.218;2023-03-01T15:52:25;11.10;;;5.00;;
75550;SDS011;65071;53.082;18.218;2023-03-01T15:55:01;11.20;;;5.90;;
75550;SDS011;65071;53.082;18.218;2023-03-01T15:57:30;9.30;;;5.00;;
75550;SDS011;65071;53.082;18.218;2023-03-01T15:59:57;10.00;;;5.70;;
75550;SDS011;65071;53.082;18.218;2023-03-01T16:02:24;9.60;;;5.30;;
75550;SDS011;65071;53.082;18.218;2023-03-01T16:04:51;13.20;;;6.40;;
75550;SDS011;65071;53.082;18.218;2023-03-01T16:07:17;12.80;;;6.60;;
75550;SDS011;65071;53.082;18.218;2023-03-01T16:09:44;11.80;;;6.40;;
75550;SDS011;65071;53.082;18.218;2023-03-01T16:12:14;15.60;;;7.60;;
75550;SDS011;65071;53.082;18.218;2023-03-01T16:14:42;16.20;;;6.90;;
75550;SDS011;65071;53.082;18.218;2023-03-01T16:17:09;13.10;;;6.70;;
75550;SDS011;65071;53.082;18.218;2023-03-01T16:19:39;14.50;;;6.90;;
75550;SDS011;65071;53.082;18.218;2023-03-01T16:22:09;14.20;;;7.30;;
75550;SDS011;65071;53.082;18.218;2023-03-01T16:24:36;15.30;;;7.40;;
75550;SDS011;65071;53.082;18.218;2023-03-01T16:27:03;16.50;;;7.20;;
75550;SDS011;65071;53.082;18.218;2023-03-01T16:29:30;14.70;;;7.30;;
75550;SDS011;65071;53.082;18.218;2023-03-01T16:31:59;15.40;;;7.20;;
75550;SDS011;65071;53.082;18.218;2023-03-01T16:34:27;15.20;;;7.30;;
75550;SDS011;65071;53.082;18.218;2023-03-01T16:36:54;17.10;;;8.10;;
75550;SDS011;65071;53.082;18.218;2023-03-01T16:39:22;16.90;;;6.60;;
75550;SDS011;65071;53.082;18.218;2023-03-01T16:41:48;14.50;;;6.40;;
75550;SDS011;65071;53.082;18.218;2023-03-01T16:44:15;17.30;;;7.30;;
75550;SDS011;65071;53.082;18.218;2023-03-01T16:46:42;16.60;;;8.40;;
75550;SDS011;65071;53.082;18.218;2023-03-01T16:49:09;19.90;;;10.10;;